Morning Charlotte — 3EMA2 — position and weather

sailwx.info

Track history (hours):
 
Tides and Currents Weather Stations Pressure Air Temp Water Temp Dewpoint Dewpoint Depression Visibility Wind Speed Wind Dir Waves Ship Positions

Morning Charlotte

Last reported at 2018-Feb-15 17:09 UTC. Time now 2018-Feb-19 00:14 UTC.
Position N 09°11' W 079°52'.

; draft 9.6 m.

Type: Cargo ship. MMSI: 357275000.

Date/timePositionNaut miles runAvg speedWind from/ knotsBaromVisibWave heightAir tempDewpointWater temp
2018-Feb-15 17:09N 09°11' W 079°52'1 6.4
2018-Feb-15 16:59N 09°11' W 079°53'3 6.4
2018-Feb-15 16:30N 09°13' W 079°55'2 4.6
2018-Feb-15 16:00N 09°15' W 079°55'1 1.3
2018-Feb-15 15:30N 09°16' W 079°55'0 0.5
2018-Feb-15 14:58N 09°16' W 079°55'1 0.4
2018-Feb-15 13:13N 09°17' W 079°55'0 1.2
2018-Feb-15 13:00N 09°17' W 079°55'1 2.1
2018-Feb-15 12:30N 09°18' W 079°55'2 3.2
2018-Feb-15 12:00N 09°20' W 079°55'4 7.0
2018-Feb-15 11:30N 09°23' W 079°55'3 5.7
2018-Feb-15 11:00N 09°26' W 079°55'4 7.1
2018-Feb-15 10:30N 09°30' W 079°55'1 1.2
2018-Feb-15 09:38N 09°30' W 079°54'1 3.1
2018-Feb-15 09:26N 09°29' W 079°54'2 3.5
2018-Feb-15 08:59N 09°28' W 079°54'3 6.3
2018-Feb-15 08:30N 09°25' W 079°54'3 5.3
2018-Feb-15 07:58N 09°22' W 079°53'0 0.0
2018-Feb-15 07:28N 09°22' W 079°53'0 0.0
2018-Feb-15 06:58N 09°22' W 079°53'0 0.0
2018-Feb-15 06:25N 09°22' W 079°53'0 0.0
2018-Feb-15 05:58N 09°22' W 079°53'0 0.0
2018-Feb-15 05:28N 09°22' W 079°53'0 0.0
2018-Feb-15 04:58N 09°22' W 079°53'0 0.0
2018-Feb-15 04:28N 09°22' W 079°53'0 0.0
2018-Feb-15 03:58N 09°22' W 079°53'0 0.0
2018-Feb-15 03:28N 09°22' W 079°53'0 0.0
2018-Feb-15 02:58N 09°22' W 079°53'0 0.0
2018-Feb-15 02:28N 09°22' W 079°53'0 0.0
2018-Feb-15 01:58N 09°22' W 079°53'0 0.0
2018-Feb-15 01:28N 09°22' W 079°53'0 0.0
2018-Feb-15 00:58N 09°22' W 079°53'0 0.0
2018-Feb-15 00:28N 09°22' W 079°53'0 0.0
2018-Feb-14 23:58N 09°22' W 079°53'0 0.0
2018-Feb-14 23:28N 09°22' W 079°53'0 0.0
2018-Feb-14 22:58N 09°22' W 079°53'0 0.0
2018-Feb-14 22:28N 09°22' W 079°53'0 0.0
2018-Feb-14 21:59N 09°22' W 079°53'0 0.1
2018-Feb-14 21:30N 09°22' W 079°53'1 1.8
2018-Feb-14 21:00N 09°23' W 079°54'2 4.8
2018-Feb-14 20:29N 09°25' W 079°54'3 7.1
2018-Feb-14 20:00N 09°29' W 079°53'713.2
2018-Feb-14 19:30N 09°35' W 079°53'5 9.4
2018-Feb-14 19:00N 09°40' W 079°52'4 8.1
2018-Feb-14 18:29N 09°44' W 079°51'  
2018-Feb-10 07:49N 36°49' W 075°47'4 9.8
2018-Feb-10 07:27N 36°51' W 075°51'4 9.7
2018-Feb-10 07:00N 36°54' W 075°55'5 9.6
2018-Feb-10 06:30N 36°57' W 075°59'611.1
2018-Feb-10 06:01N 37°01' W 076°03'816.8
2018-Feb-10 05:30N 37°09' W 076°09'1016.8
2018-Feb-10 04:56N 37°18' W 076°07'4015.8
2018-Feb-10 02:25N 37°58' W 076°11'816.6
2018-Feb-10 01:57N 38°05' W 076°13'3816.6
2018-Feb-09 23:41N 38°42' W 076°26'316.9
2018-Feb-09 23:30N 38°45' W 076°26'817.0
2018-Feb-09 23:01N 38°53' W 076°24'416.8
2018-Feb-09 22:46N 38°57' W 076°23'415.8
2018-Feb-09 22:30N 39°01' W 076°23'714.7
2018-Feb-09 22:00N 39°08' W 076°24'612.2
2018-Feb-09 21:31N 39°12' W 076°30'3 0.3
2018-Feb-09 11:00N 39°15' W 076°32'1 2.9
2018-Feb-09 10:30N 39°13' W 076°32'4 7.6
2018-Feb-09 10:00N 39°11' W 076°28'611.9
2018-Feb-09 09:30N 39°06' W 076°24'1414.1
2018-Feb-09 08:31N 38°52' W 076°24'816.7
2018-Feb-09 08:00N 38°44' W 076°26'816.3
2018-Feb-09 07:30N 38°36' W 076°26'10314.7
2018-Feb-09 00:30N 36°56' W 075°56'5 9.6
2018-Feb-09 00:00N 36°53' W 075°52'  
Track history (hours):
 
Tides and Currents Weather Stations Pressure Air Temp Water Temp Dewpoint Dewpoint Depression Visibility Wind Speed Wind Dir Waves Ship Positions

Morning Charlotte

Last reported at 2018-Feb-15 17:09 UTC. Time now 2018-Feb-19 00:14 UTC.
Position N 09°11' W 079°52'.

; draft 9.6 m.

Type: Cargo ship. MMSI: 357275000.

Date/timePositionNaut miles runAvg speedWind from/ knotsBaromVisibWave heightAir tempDewpointWater temp
2018-Feb-15 17:09N 09°11' W 079°52'1 6.4
2018-Feb-15 16:59N 09°11' W 079°53'3 6.4
2018-Feb-15 16:30N 09°13' W 079°55'2 4.6
2018-Feb-15 16:00N 09°15' W 079°55'1 1.3
2018-Feb-15 15:30N 09°16' W 079°55'0 0.5
2018-Feb-15 14:58N 09°16' W 079°55'1 0.4
2018-Feb-15 13:13N 09°17' W 079°55'0 1.2
2018-Feb-15 13:00N 09°17' W 079°55'1 2.1
2018-Feb-15 12:30N 09°18' W 079°55'2 3.2
2018-Feb-15 12:00N 09°20' W 079°55'4 7.0
2018-Feb-15 11:30N 09°23' W 079°55'3 5.7
2018-Feb-15 11:00N 09°26' W 079°55'4 7.1
2018-Feb-15 10:30N 09°30' W 079°55'1 1.2
2018-Feb-15 09:38N 09°30' W 079°54'1 3.1
2018-Feb-15 09:26N 09°29' W 079°54'2 3.5
2018-Feb-15 08:59N 09°28' W 079°54'3 6.3
2018-Feb-15 08:30N 09°25' W 079°54'3 5.3
2018-Feb-15 07:58N 09°22' W 079°53'0 0.0
2018-Feb-15 07:28N 09°22' W 079°53'0 0.0
2018-Feb-15 06:58N 09°22' W 079°53'0 0.0
2018-Feb-15 06:25N 09°22' W 079°53'0 0.0
2018-Feb-15 05:58N 09°22' W 079°53'0 0.0
2018-Feb-15 05:28N 09°22' W 079°53'0 0.0
2018-Feb-15 04:58N 09°22' W 079°53'0 0.0
2018-Feb-15 04:28N 09°22' W 079°53'0 0.0
2018-Feb-15 03:58N 09°22' W 079°53'0 0.0
2018-Feb-15 03:28N 09°22' W 079°53'0 0.0
2018-Feb-15 02:58N 09°22' W 079°53'0 0.0
2018-Feb-15 02:28N 09°22' W 079°53'0 0.0
2018-Feb-15 01:58N 09°22' W 079°53'0 0.0
2018-Feb-15 01:28N 09°22' W 079°53'0 0.0
2018-Feb-15 00:58N 09°22' W 079°53'0 0.0
2018-Feb-15 00:28N 09°22' W 079°53'0 0.0
2018-Feb-14 23:58N 09°22' W 079°53'0 0.0
2018-Feb-14 23:28N 09°22' W 079°53'0 0.0
2018-Feb-14 22:58N 09°22' W 079°53'0 0.0
2018-Feb-14 22:28N 09°22' W 079°53'0 0.0
2018-Feb-14 21:59N 09°22' W 079°53'0 0.1
2018-Feb-14 21:30N 09°22' W 079°53'1 1.8
2018-Feb-14 21:00N 09°23' W 079°54'2 4.8
2018-Feb-14 20:29N 09°25' W 079°54'3 7.1
2018-Feb-14 20:00N 09°29' W 079°53'713.2
2018-Feb-14 19:30N 09°35' W 079°53'5 9.4
2018-Feb-14 19:00N 09°40' W 079°52'4 8.1
2018-Feb-14 18:29N 09°44' W 079°51'  
2018-Feb-10 07:49N 36°49' W 075°47'4 9.8
2018-Feb-10 07:27N 36°51' W 075°51'4 9.7
2018-Feb-10 07:00N 36°54' W 075°55'5 9.6
2018-Feb-10 06:30N 36°57' W 075°59'611.1
2018-Feb-10 06:01N 37°01' W 076°03'816.8
2018-Feb-10 05:30N 37°09' W 076°09'1016.8
2018-Feb-10 04:56N 37°18' W 076°07'4015.8
2018-Feb-10 02:25N 37°58' W 076°11'816.6
2018-Feb-10 01:57N 38°05' W 076°13'3816.6
2018-Feb-09 23:41N 38°42' W 076°26'316.9
2018-Feb-09 23:30N 38°45' W 076°26'817.0
2018-Feb-09 23:01N 38°53' W 076°24'416.8
2018-Feb-09 22:46N 38°57' W 076°23'415.8
2018-Feb-09 22:30N 39°01' W 076°23'714.7
2018-Feb-09 22:00N 39°08' W 076°24'612.2
2018-Feb-09 21:31N 39°12' W 076°30'3 0.3
2018-Feb-09 11:00N 39°15' W 076°32'1 2.9
2018-Feb-09 10:30N 39°13' W 076°32'4 7.6
2018-Feb-09 10:00N 39°11' W 076°28'611.9
2018-Feb-09 09:30N 39°06' W 076°24'1414.1
2018-Feb-09 08:31N 38°52' W 076°24'816.7
2018-Feb-09 08:00N 38°44' W 076°26'816.3
2018-Feb-09 07:30N 38°36' W 076°26'10314.7
2018-Feb-09 00:30N 36°56' W 075°56'5 9.6
2018-Feb-09 00:00N 36°53' W 075°52'  

Dump ship's entire track history